createdAt,value
2022-10-03T00:00:32.640Z,100.00
2022-10-03T00:07:00.424Z,100.00
2022-10-03T00:09:51.638Z,100.00
2022-10-03T00:12:42.212Z,100.00
2022-10-03T00:15:23.000Z,100.00
2022-10-03T00:17:59.251Z,100.00
2022-10-03T00:20:39.940Z,100.00
2022-10-03T00:23:44.734Z,100.00
2022-10-03T00:26:33.904Z,100.00
2022-10-03T00:29:18.906Z,100.00
2022-10-03T00:32:23.229Z,100.00
2022-10-03T00:35:15.421Z,100.00
2022-10-03T00:38:09.318Z,100.00
2022-10-03T00:40:50.868Z,100.00
2022-10-03T00:43:22.939Z,100.00
2022-10-03T00:46:13.554Z,100.00
2022-10-03T00:49:34.159Z,100.00
2022-10-03T00:52:29.538Z,100.00
2022-10-03T00:55:12.070Z,100.00
2022-10-03T00:57:56.599Z,100.00
2022-10-03T01:00:27.721Z,100.00
2022-10-03T01:03:21.593Z,100.00
2022-10-03T01:06:06.157Z,100.00
2022-10-03T01:08:52.548Z,100.00
2022-10-03T01:11:36.822Z,100.00
2022-10-03T01:14:31.376Z,100.00
2022-10-03T01:17:22.758Z,100.00
2022-10-03T01:20:27.373Z,100.00
2022-10-03T01:23:26.393Z,100.00
2022-10-03T01:26:14.752Z,100.00
2022-10-03T01:29:23.699Z,100.00
2022-10-03T01:31:59.168Z,100.00
2022-10-03T01:34:42.274Z,100.00
2022-10-03T01:37:08.532Z,100.00
2022-10-03T01:39:44.660Z,100.00
2022-10-03T01:42:19.865Z,100.00
2022-10-03T01:45:13.114Z,100.00
2022-10-03T01:47:51.363Z,100.00
2022-10-03T01:50:39.371Z,100.00
2022-10-03T01:53:19.780Z,100.00
2022-10-03T01:56:03.725Z,100.00
2022-10-03T01:58:48.516Z,100.00
2022-10-03T02:01:38.872Z,100.00
2022-10-03T02:04:32.687Z,100.00
2022-10-03T02:07:21.500Z,100.00
2022-10-03T02:10:09.628Z,100.00
2022-10-03T02:12:53.288Z,100.00
2022-10-03T02:15:27.138Z,100.00
2022-10-03T02:18:02.570Z,100.00
2022-10-03T02:20:43.135Z,100.00
2022-10-03T02:23:32.720Z,100.00
2022-10-03T02:26:24.455Z,100.00
2022-10-03T02:29:28.447Z,100.00
2022-10-03T02:32:16.449Z,100.00
2022-10-03T02:35:10.404Z,100.00
2022-10-03T02:37:59.343Z,100.00
2022-10-03T02:40:48.256Z,100.00
2022-10-03T02:43:56.186Z,100.00
2022-10-03T02:46:49.845Z,100.00
2022-10-03T02:49:34.600Z,100.00
2022-10-03T02:52:20.259Z,100.00
2022-10-03T02:55:03.451Z,100.00
2022-10-03T02:57:55.615Z,100.00
2022-10-03T03:00:46.888Z,100.00
2022-10-03T03:03:41.322Z,100.00
2022-10-03T03:06:45.300Z,100.00
2022-10-03T03:09:30.708Z,100.00
2022-10-03T03:12:23.317Z,100.00
2022-10-03T03:15:44.561Z,100.00
2022-10-03T03:18:36.649Z,100.00
2022-10-03T03:21:18.096Z,100.00
2022-10-03T03:24:19.339Z,100.00
2022-10-03T03:26:57.374Z,100.00
2022-10-03T03:29:46.923Z,100.00
2022-10-03T03:32:22.153Z,100.00
2022-10-03T03:35:13.714Z,100.00
2022-10-03T03:38:06.797Z,100.00
2022-10-03T03:41:13.026Z,100.00
2022-10-03T03:44:06.609Z,100.00
2022-10-03T03:47:05.292Z,100.00
2022-10-03T03:49:37.516Z,100.00
2022-10-03T03:52:31.400Z,100.00
2022-10-03T03:55:03.446Z,100.00
2022-10-03T03:58:00.695Z,100.00
2022-10-03T04:00:47.901Z,100.00
2022-10-03T04:03:43.196Z,100.00
2022-10-03T04:06:16.262Z,100.00
2022-10-03T04:09:06.307Z,100.00
2022-10-03T04:11:54.234Z,100.00
2022-10-03T04:14:44.456Z,100.00
2022-10-03T04:18:00.976Z,100.00
2022-10-03T04:21:10.532Z,100.00
2022-10-03T04:24:06.140Z,100.00
2022-10-03T04:27:14.167Z,100.00
2022-10-03T04:30:07.460Z,100.00
2022-10-03T04:32:36.779Z,100.00
2022-10-03T04:35:44.047Z,100.00
2022-10-03T04:38:21.309Z,100.00
2022-10-03T04:40:58.995Z,100.00
2022-10-03T04:43:58.563Z,100.00
2022-10-03T04:46:39.619Z,100.00
2022-10-03T04:49:12.069Z,100.00
2022-10-03T04:51:41.685Z,100.00
2022-10-03T04:54:43.360Z,100.00
2022-10-03T04:57:50.987Z,100.00
2022-10-03T05:00:41.793Z,100.00
2022-10-03T05:03:29.317Z,100.00
2022-10-03T05:05:59.602Z,100.00
2022-10-03T05:08:37.431Z,100.00
2022-10-03T05:11:24.956Z,100.00
2022-10-03T05:14:03.463Z,100.00
2022-10-03T05:16:46.282Z,100.00
2022-10-03T05:19:33.299Z,100.00
2022-10-03T05:22:10.189Z,100.00
2022-10-03T05:24:47.310Z,100.00
2022-10-03T05:27:25.751Z,100.00
2022-10-03T05:30:04.816Z,100.00
2022-10-03T05:32:41.322Z,100.00
2022-10-03T05:35:24.179Z,100.00
2022-10-03T05:38:07.164Z,100.00
2022-10-03T05:40:37.700Z,100.00
2022-10-03T05:43:36.111Z,100.00
2022-10-03T05:46:21.141Z,100.00
2022-10-03T05:48:55.080Z,100.00
2022-10-03T05:51:46.241Z,100.00
2022-10-03T05:54:57.772Z,100.00
2022-10-03T05:57:24.054Z,100.00
2022-10-03T06:00:21.519Z,100.00
2022-10-03T06:03:32.462Z,100.00
2022-10-03T06:06:11.850Z,100.00
2022-10-03T06:09:24.908Z,100.00
2022-10-03T06:12:04.066Z,100.00
2022-10-03T06:14:49.214Z,100.00
2022-10-03T06:18:09.837Z,100.00
2022-10-03T06:20:57.483Z,100.00
2022-10-03T06:23:47.294Z,100.00
2022-10-03T06:26:32.467Z,100.00
2022-10-03T06:29:35.976Z,100.00
2022-10-03T06:32:20.779Z,100.00
2022-10-03T06:35:14.146Z,100.00
2022-10-03T06:37:46.383Z,100.00
2022-10-03T06:40:24.866Z,100.00
2022-10-03T06:43:11.235Z,100.00
2022-10-03T06:45:59.681Z,100.00
2022-10-03T06:48:58.361Z,100.00
2022-10-03T06:51:40.016Z,100.00
2022-10-03T06:54:30.854Z,100.00
2022-10-03T06:57:20.299Z,100.00
2022-10-03T06:59:55.639Z,100.00
2022-10-03T07:02:52.595Z,100.00
2022-10-03T07:05:41.166Z,100.00
2022-10-03T07:08:36.450Z,100.00
2022-10-03T07:11:42.925Z,100.00
2022-10-03T07:14:35.229Z,100.00
2022-10-03T07:17:07.812Z,100.00
2022-10-03T07:20:28.259Z,100.00
2022-10-03T07:23:28.312Z,100.00
2022-10-03T07:26:29.084Z,100.00
2022-10-03T07:29:13.836Z,100.00
2022-10-03T07:32:03.349Z,100.00
2022-10-03T07:34:53.635Z,100.00
2022-10-03T07:37:57.879Z,100.00
2022-10-03T07:40:39.504Z,100.00
2022-10-03T07:43:36.824Z,100.00
2022-10-03T07:46:27.671Z,100.00
2022-10-03T07:49:18.797Z,100.00
2022-10-03T07:52:00.709Z,100.00
2022-10-03T07:54:56.900Z,100.00
2022-10-03T07:57:27.813Z,100.00
2022-10-03T08:00:11.960Z,100.00
2022-10-03T08:03:14.599Z,100.00
2022-10-03T08:06:15.763Z,100.00
2022-10-03T08:09:15.120Z,100.00
2022-10-03T08:12:09.678Z,100.00
2022-10-03T08:14:45.172Z,100.00
2022-10-03T08:17:30.290Z,100.00
2022-10-03T08:20:33.939Z,100.00
2022-10-03T08:23:23.870Z,100.00
2022-10-03T08:26:08.777Z,100.00
2022-10-03T08:29:10.068Z,100.00
2022-10-03T08:32:02.916Z,100.00
2022-10-03T08:35:07.875Z,100.00
2022-10-03T08:37:58.312Z,100.00
2022-10-03T08:41:11.279Z,100.00
2022-10-03T08:44:20.680Z,100.00
2022-10-03T08:47:25.250Z,100.00
2022-10-03T08:50:18.778Z,100.00
2022-10-03T08:53:15.915Z,100.00
2022-10-03T08:56:07.841Z,100.00
2022-10-03T08:59:01.984Z,100.00
2022-10-03T09:02:17.247Z,100.00
2022-10-03T09:05:00.375Z,100.00
2022-10-03T09:08:02.672Z,100.00
2022-10-03T09:11:06.422Z,100.00
2022-10-03T09:14:04.981Z,100.00
2022-10-03T09:16:49.621Z,100.00
2022-10-03T09:19:37.127Z,100.00
2022-10-03T09:22:25.119Z,100.00
2022-10-03T09:25:22.766Z,100.00
2022-10-03T09:27:52.063Z,100.00
2022-10-03T09:30:32.374Z,100.00
2022-10-03T09:33:40.717Z,100.00
2022-10-03T09:36:22.225Z,98.12
2022-10-03T09:39:29.525Z,98.24
2022-10-03T09:42:14.611Z,96.67
2022-10-03T09:45:11.991Z,99.02
2022-10-03T09:47:50.424Z,94.51
2022-10-03T09:50:53.984Z,92.33
2022-10-03T09:53:36.184Z,90.06
2022-10-03T09:56:37.117Z,92.08
2022-10-03T09:59:42.799Z,91.84
2022-10-03T10:02:46.433Z,88.91
2022-10-03T10:06:03.435Z,88.47
2022-10-03T10:08:38.518Z,94.60
2022-10-03T10:11:10.457Z,89.46
2022-10-03T10:14:10.475Z,86.30
2022-10-03T10:16:56.611Z,83.16
2022-10-03T10:19:37.914Z,83.06
2022-10-03T10:22:30.557Z,83.24
2022-10-03T10:25:26.127Z,84.29
2022-10-03T10:28:26.528Z,79.84
2022-10-03T10:31:34.878Z,78.65
2022-10-03T10:34:45.020Z,74.98
2022-10-03T10:37:33.233Z,81.34
2022-10-03T10:40:41.984Z,75.97
2022-10-03T10:43:40.652Z,73.40
2022-10-03T10:46:31.394Z,77.13
2022-10-03T10:49:12.430Z,74.70
2022-10-03T10:52:07.064Z,74.99
2022-10-03T10:55:05.183Z,74.86
2022-10-03T10:58:03.897Z,74.68
2022-10-03T11:00:52.908Z,72.95
2022-10-03T11:03:57.350Z,76.59
2022-10-03T11:06:46.371Z,75.81
2022-10-03T11:09:35.896Z,76.77
2022-10-03T11:12:23.737Z,72.97
2022-10-03T11:15:18.176Z,75.73
2022-10-03T11:18:17.533Z,75.12
2022-10-03T11:21:08.266Z,77.40
2022-10-03T11:24:20.137Z,75.13
2022-10-03T11:26:59.352Z,71.78
2022-10-03T11:29:48.448Z,75.64
2022-10-03T11:32:53.612Z,78.29
2022-10-03T11:35:43.195Z,77.61
2022-10-03T11:38:32.656Z,74.78
2022-10-03T11:41:11.608Z,73.03
2022-10-03T11:43:48.474Z,72.33
2022-10-03T11:46:44.671Z,71.54
2022-10-03T11:49:24.098Z,74.39
2022-10-03T11:52:06.332Z,77.43
2022-10-03T11:54:39.773Z,74.00
2022-10-03T11:57:18.606Z,74.29
2022-10-03T12:00:03.730Z,73.67
2022-10-03T12:03:05.351Z,75.98
2022-10-03T12:05:42.150Z,74.86
2022-10-03T12:08:51.412Z,74.01
2022-10-03T12:11:26.468Z,74.96
2022-10-03T12:14:11.930Z,75.93
2022-10-03T12:17:01.216Z,72.41
2022-10-03T12:19:33.739Z,76.36
2022-10-03T12:22:25.862Z,77.53
2022-10-03T12:25:01.089Z,74.06
2022-10-03T12:27:52.370Z,76.10
2022-10-03T12:30:21.405Z,71.55
2022-10-03T12:33:07.861Z,73.64
2022-10-03T12:35:53.227Z,72.51
2022-10-03T12:38:52.017Z,74.72
2022-10-03T12:41:40.622Z,72.35
2022-10-03T12:44:21.601Z,70.13
2022-10-03T12:47:04.717Z,72.80
2022-10-03T12:49:51.705Z,74.24
2022-10-03T12:52:57.282Z,73.36
2022-10-03T12:55:36.899Z,71.96
2022-10-03T12:58:37.208Z,71.60
2022-10-03T13:01:17.836Z,71.54
2022-10-03T13:03:59.228Z,73.96
2022-10-03T13:07:03.639Z,78.39
2022-10-03T13:09:53.679Z,73.71
2022-10-03T13:12:52.871Z,75.49
2022-10-03T13:15:34.440Z,72.29
2022-10-03T13:18:29.015Z,70.63
2022-10-03T13:21:26.764Z,73.46
2022-10-03T13:24:05.403Z,77.12
2022-10-03T13:26:38.520Z,76.09
2022-10-03T13:29:13.134Z,77.85
2022-10-03T13:32:18.064Z,74.48
2022-10-03T13:35:40.095Z,76.37
2022-10-03T13:38:19.552Z,76.28
2022-10-03T13:41:05.737Z,76.08
2022-10-03T13:43:37.679Z,76.92
2022-10-03T13:46:32.145Z,75.94
2022-10-03T13:49:02.649Z,72.10
2022-10-03T13:51:50.084Z,72.38
2022-10-03T13:54:54.855Z,79.18
2022-10-03T13:57:27.062Z,77.87
2022-10-03T14:00:08.536Z,76.81
2022-10-03T14:02:49.974Z,77.63
2022-10-03T14:05:49.704Z,75.14
2022-10-03T14:08:43.724Z,76.02
2022-10-03T14:11:50.063Z,79.98
2022-10-03T14:14:46.080Z,74.61
2022-10-03T14:17:51.219Z,77.28
2022-10-03T14:20:26.879Z,73.35
2022-10-03T14:23:12.020Z,74.08
2022-10-03T14:25:48.105Z,76.09
2022-10-03T14:28:26.536Z,71.48
2022-10-03T14:31:24.142Z,71.99
2022-10-03T14:34:04.423Z,73.89
2022-10-03T14:36:43.856Z,68.87
2022-10-03T14:39:36.708Z,73.35
2022-10-03T14:42:21.810Z,72.20
2022-10-03T14:44:57.796Z,72.90
2022-10-03T14:47:25.157Z,75.89
2022-10-03T14:49:59.514Z,73.88
2022-10-03T14:52:54.331Z,73.45
2022-10-03T14:55:29.886Z,74.24
2022-10-03T14:58:11.457Z,72.34
2022-10-03T15:01:02.873Z,74.72
2022-10-03T15:03:39.726Z,73.33
2022-10-03T15:06:11.829Z,73.53
2022-10-03T15:08:44.475Z,71.48
2022-10-03T15:11:14.936Z,74.32
2022-10-03T15:13:50.867Z,73.26
2022-10-03T15:16:21.039Z,72.34
2022-10-03T15:19:06.400Z,73.15
2022-10-03T15:21:34.568Z,76.26
2022-10-03T15:24:04.844Z,72.97
2022-10-03T15:26:35.804Z,72.24
2022-10-03T15:29:06.011Z,75.38
2022-10-03T15:31:35.600Z,73.31
2022-10-03T15:34:06.629Z,77.23
2022-10-03T15:36:39.800Z,75.10
2022-10-03T15:39:16.934Z,73.46
2022-10-03T15:42:20.226Z,73.62
2022-10-03T15:44:53.659Z,73.22
2022-10-03T15:47:26.705Z,74.05
2022-10-03T15:50:00.257Z,73.40
2022-10-03T15:52:40.025Z,75.31
2022-10-03T15:55:13.680Z,75.77
2022-10-03T15:57:46.424Z,75.61
2022-10-03T16:00:27.497Z,78.56
2022-10-03T16:03:27.401Z,77.02
2022-10-03T16:06:02.914Z,78.07
2022-10-03T16:08:34.918Z,76.01
2022-10-03T16:11:17.512Z,74.32
2022-10-03T16:13:47.915Z,79.89
2022-10-03T16:16:47.181Z,79.89
2022-10-03T16:19:25.000Z,82.67
2022-10-03T16:22:23.657Z,81.71
2022-10-03T16:25:04.507Z,81.50
2022-10-03T16:27:35.435Z,81.39
2022-10-03T16:30:10.844Z,83.51
2022-10-03T16:32:43.363Z,81.54
2022-10-03T16:35:27.843Z,87.68
2022-10-03T16:37:55.445Z,81.87
2022-10-03T16:40:23.019Z,84.79
2022-10-03T16:42:55.407Z,86.13
2022-10-03T16:45:37.330Z,86.74
2022-10-03T16:48:30.986Z,88.74
2022-10-03T16:50:57.856Z,88.98
2022-10-03T16:53:24.352Z,87.66
2022-10-03T16:56:00.461Z,92.75
2022-10-03T16:58:33.230Z,94.89
2022-10-03T17:01:25.879Z,92.63
2022-10-03T17:03:57.423Z,95.46
2022-10-03T17:06:29.746Z,97.33
2022-10-03T17:09:00.493Z,97.41
2022-10-03T17:11:28.773Z,98.03
2022-10-03T17:13:59.949Z,97.41
2022-10-03T17:17:02.865Z,99.35
2022-10-03T17:19:40.647Z,100.00
2022-10-03T17:22:18.127Z,100.00
2022-10-03T17:24:44.406Z,98.44
2022-10-03T17:27:18.089Z,100.00
2022-10-03T17:29:57.217Z,100.00
2022-10-03T17:32:32.968Z,100.00
2022-10-03T17:35:08.056Z,100.00
2022-10-03T17:38:24.945Z,100.00
2022-10-03T17:41:16.470Z,100.00
2022-10-03T17:44:19.684Z,100.00
2022-10-03T17:47:10.727Z,100.00
2022-10-03T17:49:47.879Z,100.00
2022-10-03T17:52:21.044Z,100.00
2022-10-03T17:54:52.653Z,100.00
2022-10-03T17:57:27.782Z,100.00
2022-10-03T18:00:00.461Z,100.00
2022-10-03T18:02:45.721Z,100.00
2022-10-03T18:05:21.972Z,100.00
2022-10-03T18:07:52.509Z,100.00
2022-10-03T18:10:22.607Z,100.00
2022-10-03T18:12:53.677Z,100.00
2022-10-03T18:15:55.907Z,100.00
2022-10-03T18:18:51.065Z,100.00
2022-10-03T18:21:46.647Z,100.00
2022-10-03T18:24:23.632Z,100.00
2022-10-03T18:27:08.383Z,100.00
2022-10-03T18:29:40.794Z,100.00
2022-10-03T18:32:09.902Z,100.00
2022-10-03T18:35:10.756Z,100.00
2022-10-03T18:37:40.050Z,100.00
2022-10-03T18:40:20.185Z,100.00
2022-10-03T18:42:50.283Z,100.00
2022-10-03T18:45:24.012Z,100.00
2022-10-03T18:47:56.682Z,100.00
2022-10-03T18:50:36.140Z,100.00
2022-10-03T18:53:21.521Z,100.00
2022-10-03T18:55:54.707Z,100.00
2022-10-03T18:58:27.767Z,100.00
2022-10-03T19:01:04.921Z,100.00
2022-10-03T19:03:42.156Z,100.00
2022-10-03T19:06:19.401Z,100.00
2022-10-03T19:08:57.844Z,100.00
2022-10-03T19:11:35.084Z,100.00
2022-10-03T19:14:11.650Z,100.00
2022-10-03T19:16:42.902Z,100.00
2022-10-03T19:19:32.968Z,100.00
2022-10-03T19:22:05.921Z,100.00
2022-10-03T19:24:56.897Z,100.00
2022-10-03T19:27:38.195Z,100.00
2022-10-03T19:30:07.712Z,100.00
2022-10-03T19:33:01.098Z,100.00
2022-10-03T19:35:29.647Z,100.00
2022-10-03T19:38:04.480Z,100.00
2022-10-03T19:40:40.221Z,100.00
2022-10-03T19:43:30.179Z,100.00
2022-10-03T19:46:13.082Z,100.00
2022-10-03T19:48:48.716Z,100.00
2022-10-03T19:51:22.675Z,100.00
2022-10-03T19:53:53.400Z,100.00
2022-10-03T19:56:22.015Z,100.00
2022-10-03T19:58:59.870Z,100.00
2022-10-03T20:01:26.931Z,100.00
2022-10-03T20:03:57.712Z,100.00
2022-10-03T20:06:29.110Z,100.00
2022-10-03T20:09:08.647Z,100.00
2022-10-03T20:11:47.714Z,100.00
2022-10-03T20:14:23.543Z,100.00
2022-10-03T20:16:53.376Z,100.00
2022-10-03T20:19:26.989Z,100.00
2022-10-03T20:22:02.062Z,100.00
2022-10-03T20:24:44.589Z,100.00
2022-10-03T20:27:38.915Z,100.00
2022-10-03T20:30:06.348Z,100.00
2022-10-03T20:32:37.025Z,100.00
2022-10-03T20:35:04.985Z,100.00
2022-10-03T20:37:43.303Z,100.00
2022-10-03T20:40:18.639Z,100.00
2022-10-03T20:42:47.974Z,100.00
2022-10-03T20:45:28.090Z,100.00
2022-10-03T20:48:08.523Z,100.00
2022-10-03T20:51:01.464Z,100.00
2022-10-03T20:53:30.923Z,100.00
2022-10-03T20:56:02.423Z,100.00
2022-10-03T20:58:39.537Z,100.00
2022-10-03T21:01:15.428Z,100.00
2022-10-03T21:04:13.895Z,100.00
2022-10-03T21:07:10.780Z,100.00
2022-10-03T21:09:45.123Z,100.00
2022-10-03T21:12:45.352Z,100.00
2022-10-03T21:15:30.090Z,100.00
2022-10-03T21:17:57.717Z,100.00
2022-10-03T21:20:31.227Z,100.00
2022-10-03T21:23:15.755Z,100.00
2022-10-03T21:25:43.800Z,100.00
2022-10-03T21:28:39.412Z,100.00
2022-10-03T21:31:43.448Z,100.00
2022-10-03T21:34:26.184Z,100.00
2022-10-03T21:37:16.227Z,100.00
2022-10-03T21:40:00.683Z,100.00
2022-10-03T21:42:55.992Z,100.00
2022-10-03T21:45:39.075Z,100.00
2022-10-03T21:48:32.439Z,100.00
2022-10-03T21:51:03.068Z,100.00
2022-10-03T21:54:12.147Z,100.00
2022-10-03T21:56:57.165Z,100.00
2022-10-03T21:59:57.205Z,100.00
2022-10-03T22:02:53.505Z,100.00
2022-10-03T22:05:41.153Z,100.00
2022-10-03T22:08:28.787Z,100.00
2022-10-03T22:10:58.199Z,100.00
2022-10-03T22:13:29.180Z,100.00
2022-10-03T22:16:08.102Z,100.00
2022-10-03T22:19:06.877Z,100.00
2022-10-03T22:22:08.339Z,100.00
2022-10-03T22:24:52.220Z,100.00
2022-10-03T22:27:28.198Z,100.00
2022-10-03T22:30:08.221Z,100.00
2022-10-03T22:32:40.913Z,100.00
2022-10-03T22:35:32.735Z,100.00
2022-10-03T22:37:59.954Z,100.00
2022-10-03T22:40:28.102Z,100.00
2022-10-03T22:42:58.729Z,100.00
2022-10-03T22:45:27.899Z,100.00
2022-10-03T22:47:59.489Z,100.00
2022-10-03T22:50:31.456Z,100.00
2022-10-03T22:53:02.193Z,100.00
2022-10-03T22:55:29.879Z,100.00
2022-10-03T22:57:58.616Z,100.00
2022-10-03T23:00:30.157Z,100.00
2022-10-03T23:03:12.050Z,100.00
2022-10-03T23:06:09.433Z,100.00
2022-10-03T23:09:15.425Z,100.00
2022-10-03T23:11:47.796Z,100.00
2022-10-03T23:14:17.126Z,100.00
2022-10-03T23:17:02.328Z,100.00
2022-10-03T23:20:04.192Z,100.00
2022-10-03T23:22:34.243Z,100.00
2022-10-03T23:25:15.813Z,100.00
2022-10-03T23:28:18.039Z,100.00
2022-10-03T23:30:44.968Z,100.00
2022-10-03T23:33:38.661Z,100.00
2022-10-03T23:36:14.402Z,100.00
2022-10-03T23:38:40.651Z,100.00
2022-10-03T23:41:13.703Z,100.00
2022-10-03T23:43:54.994Z,100.00
2022-10-03T23:46:24.646Z,100.00
2022-10-03T23:49:00.168Z,100.00
2022-10-03T23:51:34.771Z,100.00
2022-10-03T23:54:04.356Z,100.00
2022-10-03T23:56:37.490Z,100.00
2022-10-03T23:59:03.740Z,100.00
